Chillicothe, Iowa
Current Conditions -  °F | °C
As of 4:15 PM on Thursday 23 Oct 2014 (Local Time) from KOOA Reporting Station
Overcast Overcast  
Wind Chill: 63°   Ceiling: 3500
Heat Index: 63°   Visibility: 10mi
Dew Point: 56°   Wind: 8mph
Humidity: 79%   Direction: 240°WSW
Pressure: 30.03"   Gusts: NA
Location:  41.09°N, 92.53°W
Report Text: KOOA 232115Z AUTO 24007KT 10SM SCT014 OVC035 17/14 A3003 RMK AO2 T01720135
Loading
Personal Weather Stations






























Interactive Weather Map
Tropical Storm Tracking
New forecast layout! Learn more

10-Day Weather Forecast

Advertisements
Track Severe Weather on mobile